createdAt,value
2022-10-26T00:01:05.429Z,100598.09
2022-10-26T00:03:33.737Z,100576.13
2022-10-26T00:06:10.198Z,100576.59
2022-10-26T00:08:37.537Z,100597.13
2022-10-26T00:11:05.633Z,100580.22
2022-10-26T00:13:33.064Z,100584.84
2022-10-26T00:16:01.386Z,100603.72
2022-10-26T00:18:29.024Z,100589.56
2022-10-26T00:20:56.705Z,100600.44
2022-10-26T00:23:24.043Z,100569.31
2022-10-26T00:25:55.648Z,100568.19
2022-10-26T00:28:23.364Z,100577.09
2022-10-26T00:30:50.824Z,100583.63
2022-10-26T00:33:18.146Z,100596.50
2022-10-26T00:35:49.474Z,100565.94
2022-10-26T00:38:16.974Z,100576.22
2022-10-26T00:40:45.000Z,100567.59
2022-10-26T00:43:16.726Z,100553.72
2022-10-26T00:45:44.955Z,100570.09
2022-10-26T00:48:14.678Z,100546.75
2022-10-26T00:50:43.065Z,100566.53
2022-10-26T00:53:14.590Z,100553.47
2022-10-26T00:55:43.395Z,100550.16
2022-10-26T00:58:10.664Z,100536.03
2022-10-26T01:00:38.315Z,100554.88
2022-10-26T01:03:06.445Z,100540.75
2022-10-26T01:05:33.762Z,100528.47
2022-10-26T01:08:01.183Z,100528.47
2022-10-26T01:10:28.572Z,100524.91
2022-10-26T01:12:57.770Z,100530.72
2022-10-26T01:15:28.248Z,100520.41
2022-10-26T01:17:57.878Z,100530.41
2022-10-26T01:20:48.253Z,100514.34
2022-10-26T01:23:36.752Z,100502.31
2022-10-26T01:26:22.934Z,100517.25
2022-10-26T01:29:03.035Z,100506.66
2022-10-26T01:31:33.572Z,100490.91
2022-10-26T01:34:01.872Z,100487.81
2022-10-26T01:36:38.431Z,100491.13
2022-10-26T01:39:07.460Z,100492.53
2022-10-26T01:41:37.064Z,100492.41
2022-10-26T01:44:05.328Z,100499.66
2022-10-26T01:46:37.616Z,100521.78
2022-10-26T01:49:11.829Z,100543.69
2022-10-26T01:51:41.974Z,100490.59
2022-10-26T01:54:10.181Z,100492.88
2022-10-26T01:56:39.371Z,100484.75
2022-10-26T01:59:20.088Z,100477.63
2022-10-26T02:01:52.227Z,100483.50
2022-10-26T02:04:35.006Z,100473.50
2022-10-26T02:07:03.769Z,100492.94
2022-10-26T02:09:49.819Z,100471.59
2022-10-26T02:12:21.984Z,100474.06
2022-10-26T02:14:49.483Z,100488.53
2022-10-26T02:17:20.788Z,100478.28
2022-10-26T02:19:50.671Z,100488.53
2022-10-26T02:22:19.496Z,100454.13
2022-10-26T02:24:46.790Z,100459.41
2022-10-26T02:27:16.638Z,100471.34
2022-10-26T02:29:44.855Z,100459.94
2022-10-26T02:32:12.299Z,100466.03
2022-10-26T02:34:40.786Z,100466.38
2022-10-26T02:37:08.577Z,100456.00
2022-10-26T02:39:35.964Z,100466.59
2022-10-26T02:42:05.684Z,100459.66
2022-10-26T02:44:34.864Z,100467.69
2022-10-26T02:47:02.904Z,100462.97
2022-10-26T02:49:30.332Z,100461.34
2022-10-26T02:52:09.619Z,100469.41
2022-10-26T02:54:58.515Z,100478.59
2022-10-26T02:57:33.634Z,100460.88
2022-10-26T03:00:01.278Z,100454.47
2022-10-26T03:02:30.396Z,100454.69
2022-10-26T03:04:57.787Z,100463.06
2022-10-26T03:07:25.406Z,100460.28
2022-10-26T03:09:52.704Z,100464.19
2022-10-26T03:12:20.235Z,100453.94
2022-10-26T03:14:48.211Z,100466.38
2022-10-26T03:17:16.853Z,100453.69
2022-10-26T03:19:44.843Z,100452.88
2022-10-26T03:22:12.119Z,100465.91
2022-10-26T03:24:39.722Z,100461.44
2022-10-26T03:27:07.240Z,100483.16
2022-10-26T03:29:34.506Z,100454.59
2022-10-26T03:32:04.532Z,100449.66
2022-10-26T03:34:31.988Z,100471.31
2022-10-26T03:36:59.643Z,100457.38
2022-10-26T03:39:27.221Z,100449.59
2022-10-26T03:41:56.076Z,100466.34
2022-10-26T03:44:23.567Z,100442.69
2022-10-26T03:46:50.862Z,100460.44
2022-10-26T03:49:18.263Z,100449.91
2022-10-26T03:51:45.629Z,100458.78
2022-10-26T03:54:12.948Z,100445.41
2022-10-26T03:56:40.280Z,100447.69
2022-10-26T03:59:07.697Z,100444.56
2022-10-26T04:01:35.184Z,100444.09
2022-10-26T04:04:02.770Z,100448.25
2022-10-26T04:06:30.793Z,100428.59
2022-10-26T04:09:02.599Z,100445.56
2022-10-26T04:11:30.461Z,100444.16
2022-10-26T04:14:00.715Z,100430.50
2022-10-26T04:16:32.504Z,100436.94
2022-10-26T04:19:01.081Z,100421.34
2022-10-26T04:21:28.741Z,100428.31
2022-10-26T04:23:56.930Z,100420.03
2022-10-26T04:26:24.740Z,100411.72
2022-10-26T04:28:53.784Z,100412.53
2022-10-26T04:31:21.238Z,100414.16
2022-10-26T04:33:48.492Z,100423.34
2022-10-26T04:36:15.774Z,100415.00
2022-10-26T04:38:45.507Z,100417.78
2022-10-26T04:41:13.196Z,100430.28
2022-10-26T04:43:40.745Z,100413.13
2022-10-26T04:46:09.137Z,100423.91
2022-10-26T04:48:38.242Z,100418.16
2022-10-26T04:51:05.831Z,100423.44
2022-10-26T04:53:33.761Z,100416.78
2022-10-26T04:56:01.270Z,100416.53
2022-10-26T04:58:29.289Z,100407.94
2022-10-26T05:00:56.942Z,100417.44
2022-10-26T05:03:24.318Z,100408.78
2022-10-26T05:05:51.748Z,100409.34
2022-10-26T05:08:19.333Z,100420.47
2022-10-26T05:10:50.291Z,100418.53
2022-10-26T05:13:24.221Z,100424.06
2022-10-26T05:15:55.109Z,100418.28
2022-10-26T05:18:23.378Z,100418.88
2022-10-26T05:20:52.449Z,100415.19
2022-10-26T05:23:20.231Z,100421.06
2022-10-26T05:25:48.039Z,100419.97
2022-10-26T05:28:15.520Z,100418.88
2022-10-26T05:30:43.956Z,100419.19
2022-10-26T05:33:11.668Z,100425.84
2022-10-26T05:35:39.271Z,100417.75
2022-10-26T05:38:16.681Z,100423.31
2022-10-26T05:40:51.670Z,100418.41
2022-10-26T05:43:19.776Z,100429.28
2022-10-26T05:45:47.434Z,100424.25
2022-10-26T05:48:14.851Z,100426.75
2022-10-26T05:50:42.231Z,100429.28
2022-10-26T05:53:10.011Z,100429.28
2022-10-26T05:55:37.606Z,100429.81
2022-10-26T05:58:16.755Z,100425.13
2022-10-26T06:00:50.637Z,100426.22
2022-10-26T06:03:22.138Z,100428.75
2022-10-26T06:06:00.682Z,100431.84
2022-10-26T06:08:30.313Z,100432.69
2022-10-26T06:10:59.543Z,100428.78
2022-10-26T06:13:27.649Z,100430.22
2022-10-26T06:16:01.460Z,100427.44
2022-10-26T06:18:47.422Z,100429.91
2022-10-26T06:21:35.045Z,100417.97
2022-10-26T06:24:08.270Z,100425.53
2022-10-26T06:26:38.307Z,100430.25
2022-10-26T06:29:10.367Z,100430.81
2022-10-26T06:31:38.713Z,100428.88
2022-10-26T06:34:06.057Z,100426.41
2022-10-26T06:36:34.362Z,100435.88
2022-10-26T06:39:06.409Z,100433.38
2022-10-26T06:41:35.234Z,100435.13
2022-10-26T06:44:02.971Z,100431.19
2022-10-26T06:46:33.712Z,100438.16
2022-10-26T06:49:20.082Z,100434.56
2022-10-26T06:51:49.889Z,100439.63
2022-10-26T06:54:22.434Z,100434.31
2022-10-26T06:56:49.930Z,100437.94
2022-10-26T06:59:30.157Z,100441.06
2022-10-26T07:01:57.993Z,100437.69
2022-10-26T07:04:26.618Z,100442.41
2022-10-26T07:06:57.214Z,100449.94
2022-10-26T07:09:24.662Z,100443.00
2022-10-26T07:11:52.002Z,100442.19
2022-10-26T07:14:19.699Z,100446.63
2022-10-26T07:16:47.477Z,100443.56
2022-10-26T07:19:14.779Z,100442.44
2022-10-26T07:21:42.193Z,100448.00
2022-10-26T07:24:09.901Z,100447.16
2022-10-26T07:26:37.414Z,100445.81
2022-10-26T07:29:05.370Z,100450.28
2022-10-26T07:31:33.134Z,100439.72
2022-10-26T07:34:01.105Z,100452.22
2022-10-26T07:36:29.078Z,100444.16
2022-10-26T07:38:56.435Z,100447.75
2022-10-26T07:41:26.530Z,100451.38
2022-10-26T07:43:54.047Z,100450.53
2022-10-26T07:46:21.361Z,100444.41
2022-10-26T07:48:49.482Z,100444.72
2022-10-26T07:51:16.960Z,100444.16
2022-10-26T07:53:45.482Z,100449.72
2022-10-26T07:56:13.600Z,100454.22
2022-10-26T07:58:42.088Z,100446.13
2022-10-26T08:01:11.034Z,100452.88
2022-10-26T08:03:38.522Z,100458.13
2022-10-26T08:06:06.272Z,100456.75
2022-10-26T08:08:34.151Z,100457.84
2022-10-26T08:11:03.278Z,100460.06
2022-10-26T08:13:31.029Z,100458.13
2022-10-26T08:16:00.288Z,100462.56
2022-10-26T08:18:27.862Z,100450.34
2022-10-26T08:21:01.792Z,100463.72
2022-10-26T08:23:37.653Z,100463.16
2022-10-26T08:26:06.601Z,100460.34
2022-10-26T08:28:35.948Z,100461.47
2022-10-26T08:31:03.213Z,100460.09
2022-10-26T08:33:32.033Z,100465.66
2022-10-26T08:36:00.170Z,100467.88
2022-10-26T08:38:27.565Z,100474.28
2022-10-26T08:40:54.928Z,100473.19
2022-10-26T08:43:24.462Z,100477.06
2022-10-26T08:45:52.738Z,100474.56
2022-10-26T08:48:22.025Z,100474.78
2022-10-26T08:50:55.944Z,100472.88
2022-10-26T08:53:30.900Z,100479.59
2022-10-26T08:55:59.974Z,100486.00
2022-10-26T08:58:47.836Z,100480.44
2022-10-26T09:01:16.469Z,100482.13
2022-10-26T09:03:44.091Z,100482.13
2022-10-26T09:06:13.623Z,100481.28
2022-10-26T09:08:44.036Z,100479.03
2022-10-26T09:11:32.547Z,100479.59
2022-10-26T09:14:03.480Z,100479.28
2022-10-26T09:16:37.588Z,100473.72
2022-10-26T09:19:11.131Z,100481.81
2022-10-26T09:21:48.474Z,100484.59
2022-10-26T09:24:36.158Z,100488.75
2022-10-26T09:27:26.651Z,100486.50
2022-10-26T09:29:54.329Z,100489.59
2022-10-26T09:32:23.529Z,100485.97
2022-10-26T09:34:55.311Z,100501.28
2022-10-26T09:37:27.046Z,100487.38
2022-10-26T09:40:05.487Z,100482.31
2022-10-26T09:42:33.202Z,100496.53
2022-10-26T09:45:01.689Z,100490.97
2022-10-26T09:47:37.253Z,100492.03
2022-10-26T09:50:07.881Z,100497.34
2022-10-26T09:52:35.389Z,100494.50
2022-10-26T09:55:02.833Z,100497.84
2022-10-26T09:57:32.424Z,100497.03
2022-10-26T10:00:00.163Z,100497.03
2022-10-26T10:02:37.759Z,100504.56
2022-10-26T10:05:27.500Z,100498.75
2022-10-26T10:08:11.090Z,100498.47
2022-10-26T10:10:39.832Z,100504.88
2022-10-26T10:13:16.881Z,100502.00
2022-10-26T10:15:55.348Z,100503.47
2022-10-26T10:18:23.893Z,100504.28
2022-10-26T10:20:56.003Z,100509.81
2022-10-26T10:23:31.506Z,100506.84
2022-10-26T10:26:11.136Z,100502.91
2022-10-26T10:28:39.219Z,100499.56
2022-10-26T10:31:18.454Z,100501.47
2022-10-26T10:33:47.002Z,100515.66
2022-10-26T10:36:15.556Z,100505.97
2022-10-26T10:38:44.153Z,100512.66
2022-10-26T10:41:30.467Z,100513.75
2022-10-26T10:44:07.931Z,100503.44
2022-10-26T10:46:37.797Z,100514.53
2022-10-26T10:49:06.057Z,100515.69
2022-10-26T10:51:38.874Z,100510.69
2022-10-26T10:54:06.517Z,100522.09
2022-10-26T10:56:49.532Z,100507.09
2022-10-26T10:59:26.114Z,100505.97
2022-10-26T11:01:53.750Z,100511.50
2022-10-26T11:04:25.509Z,100520.44
2022-10-26T11:06:53.055Z,100520.69
2022-10-26T11:09:21.723Z,100520.38
2022-10-26T11:11:50.702Z,100517.34
2022-10-26T11:14:24.003Z,100517.06
2022-10-26T11:16:59.465Z,100519.25
2022-10-26T11:19:34.716Z,100522.88
2022-10-26T11:22:02.665Z,100524.31
2022-10-26T11:24:32.178Z,100524.59
2022-10-26T11:27:14.997Z,100534.34
2022-10-26T11:30:01.306Z,100532.38
2022-10-26T11:32:30.798Z,100533.19
2022-10-26T11:35:05.033Z,100541.00
2022-10-26T11:37:33.283Z,100537.94
2022-10-26T11:40:19.549Z,100535.66
2022-10-26T11:42:51.352Z,100538.69
2022-10-26T11:45:31.690Z,100540.03
2022-10-26T11:48:04.370Z,100548.38
2022-10-26T11:50:35.189Z,100540.81
2022-10-26T11:53:10.738Z,100545.22
2022-10-26T11:55:38.363Z,100554.03
2022-10-26T11:58:05.772Z,100559.25
2022-10-26T12:00:33.208Z,100556.78
2022-10-26T12:03:07.111Z,100555.16
2022-10-26T12:05:36.211Z,100569.31
2022-10-26T12:08:24.303Z,100560.63
2022-10-26T12:11:04.240Z,100573.72
2022-10-26T12:13:44.100Z,100568.47
2022-10-26T12:16:24.572Z,100570.69
2022-10-26T12:18:56.083Z,100580.44
2022-10-26T12:21:25.258Z,100581.06
2022-10-26T12:23:54.431Z,100584.63
2022-10-26T12:26:25.017Z,100596.06
2022-10-26T12:29:01.771Z,100587.59
2022-10-26T12:31:36.644Z,100595.97
2022-10-26T12:34:04.182Z,100602.34
2022-10-26T12:36:48.863Z,100592.31
2022-10-26T12:39:29.600Z,100597.34
2022-10-26T12:42:06.378Z,100601.19
2022-10-26T12:44:35.512Z,100605.13
2022-10-26T12:47:03.249Z,100602.66
2022-10-26T12:49:49.485Z,100601.50
2022-10-26T12:52:20.567Z,100602.34
2022-10-26T12:55:02.670Z,100603.47
2022-10-26T12:57:50.397Z,100608.47
2022-10-26T13:00:18.504Z,100605.28
2022-10-26T13:02:45.918Z,100604.16
2022-10-26T13:05:28.599Z,100609.53
2022-10-26T13:08:09.107Z,100606.81
2022-10-26T13:10:37.179Z,100606.75
2022-10-26T13:13:06.020Z,100607.81
2022-10-26T13:15:57.452Z,100608.91
2022-10-26T13:18:25.114Z,100609.44
2022-10-26T13:21:04.612Z,100612.69
2022-10-26T13:23:32.659Z,100620.03
2022-10-26T13:26:12.142Z,100618.31
2022-10-26T13:28:39.659Z,100615.25
2022-10-26T13:31:18.848Z,100617.78
2022-10-26T13:33:46.177Z,100615.81
2022-10-26T13:36:18.537Z,100615.75
2022-10-26T13:38:46.042Z,100607.13
2022-10-26T13:41:39.376Z,100614.97
2022-10-26T13:44:07.201Z,100612.63
2022-10-26T13:46:35.103Z,100609.03
2022-10-26T13:49:09.889Z,100608.75
2022-10-26T13:51:41.179Z,100609.59
2022-10-26T13:54:20.392Z,100612.50
2022-10-26T13:56:54.250Z,100613.50
2022-10-26T13:59:21.662Z,100610.22
2022-10-26T14:02:05.299Z,100607.44
2022-10-26T14:04:32.893Z,100615.78
2022-10-26T14:07:00.307Z,100610.19
2022-10-26T14:10:18.521Z,100615.75
2022-10-26T14:13:09.413Z,100605.47
2022-10-26T14:15:38.554Z,100612.06
2022-10-26T14:18:05.861Z,100624.72
2022-10-26T14:20:34.131Z,100618.19
2022-10-26T14:23:04.252Z,100612.38
2022-10-26T14:25:41.977Z,100614.25
2022-10-26T14:28:23.421Z,100612.69
2022-10-26T14:30:51.768Z,100617.72
2022-10-26T14:33:20.171Z,100618.56
2022-10-26T14:35:47.706Z,100622.72
2022-10-26T14:38:17.405Z,100613.50
2022-10-26T14:40:45.098Z,100619.41
2022-10-26T14:43:15.234Z,100622.72
2022-10-26T14:45:48.663Z,100628.19
2022-10-26T14:48:21.179Z,100620.41
2022-10-26T14:50:59.106Z,100627.91
2022-10-26T14:53:35.443Z,100625.00
2022-10-26T14:56:03.652Z,100633.47
2022-10-26T14:58:31.621Z,100638.81
2022-10-26T15:01:24.733Z,100637.66
2022-10-26T15:03:56.273Z,100648.19
2022-10-26T15:06:30.754Z,100643.75
2022-10-26T15:08:59.640Z,100652.91
2022-10-26T15:11:27.038Z,100658.22
2022-10-26T15:13:55.839Z,100659.88
2022-10-26T15:16:23.883Z,100652.13
2022-10-26T15:18:52.423Z,100658.28
2022-10-26T15:21:26.627Z,100660.78
2022-10-26T15:23:54.204Z,100672.47
2022-10-26T15:26:24.232Z,100665.00
2022-10-26T15:28:52.936Z,100673.59
2022-10-26T15:31:20.436Z,100667.44
2022-10-26T15:33:50.786Z,100670.19
2022-10-26T15:36:18.946Z,100676.56
2022-10-26T15:38:46.558Z,100680.81
2022-10-26T15:41:14.282Z,100679.03
2022-10-26T15:43:41.629Z,100689.09
2022-10-26T15:46:12.031Z,100687.06
2022-10-26T15:48:40.640Z,100696.91
2022-10-26T15:51:10.734Z,100697.44
2022-10-26T15:53:42.368Z,100700.28
2022-10-26T15:56:14.830Z,100701.97
2022-10-26T15:58:42.605Z,100694.41
2022-10-26T16:01:19.360Z,100694.66
2022-10-26T16:03:46.900Z,100699.44
2022-10-26T16:06:16.216Z,100700.56
2022-10-26T16:08:51.094Z,100698.06
2022-10-26T16:11:21.049Z,100700.59
2022-10-26T16:13:51.583Z,100699.50
2022-10-26T16:16:20.457Z,100700.03
2022-10-26T16:18:51.088Z,100701.38
2022-10-26T16:21:19.256Z,100709.41
2022-10-26T16:23:54.271Z,100697.25
2022-10-26T16:26:24.123Z,100702.28
2022-10-26T16:28:51.675Z,100705.63
2022-10-26T16:31:19.406Z,100702.28
2022-10-26T16:33:48.224Z,100705.63
2022-10-26T16:36:15.749Z,100705.13
2022-10-26T16:38:43.147Z,100714.31
2022-10-26T16:41:11.228Z,100713.47
2022-10-26T16:43:42.518Z,100711.78
2022-10-26T16:46:10.785Z,100712.25
2022-10-26T16:48:38.586Z,100715.69
2022-10-26T16:51:31.409Z,100707.28
2022-10-26T16:53:58.785Z,100713.94
2022-10-26T16:56:27.152Z,100715.09
2022-10-26T16:58:56.673Z,100714.25
2022-10-26T17:01:25.166Z,100718.94
2022-10-26T17:03:53.317Z,100717.16
2022-10-26T17:06:21.370Z,100706.69
2022-10-26T17:08:48.924Z,100710.81
2022-10-26T17:11:17.806Z,100713.94
2022-10-26T17:13:45.148Z,100711.69
2022-10-26T17:16:16.527Z,100704.50
2022-10-26T17:18:47.447Z,100703.34
2022-10-26T17:21:15.512Z,100709.94
2022-10-26T17:23:42.903Z,100704.50
2022-10-26T17:26:11.094Z,100711.94
2022-10-26T17:28:38.572Z,100703.34
2022-10-26T17:31:07.176Z,100703.63
2022-10-26T17:33:34.979Z,100703.06
2022-10-26T17:36:03.197Z,100707.84
2022-10-26T17:38:31.936Z,100696.47
2022-10-26T17:41:02.872Z,100696.22
2022-10-26T17:43:31.292Z,100695.88
2022-10-26T17:46:02.096Z,100699.81
2022-10-26T17:48:30.220Z,100700.59
2022-10-26T17:51:01.082Z,100693.44
2022-10-26T17:53:29.372Z,100688.94
2022-10-26T17:56:00.963Z,100688.69
2022-10-26T17:58:29.253Z,100697.28
2022-10-26T18:00:56.603Z,100698.41
2022-10-26T18:03:24.146Z,100698.84
2022-10-26T18:05:51.602Z,100698.41
2022-10-26T18:08:19.107Z,100702.28
2022-10-26T18:10:52.209Z,100700.03
2022-10-26T18:13:33.991Z,100700.94
2022-10-26T18:16:08.292Z,100703.97
2022-10-26T18:18:36.173Z,100703.44
2022-10-26T18:21:05.470Z,100702.28
2022-10-26T18:23:33.180Z,100710.13
2022-10-26T18:26:11.207Z,100703.38
2022-10-26T18:28:40.926Z,100702.84
2022-10-26T18:31:09.595Z,100706.75
2022-10-26T18:33:37.061Z,100711.19
2022-10-26T18:36:05.595Z,100716.84
2022-10-26T18:38:33.141Z,100716.75
2022-10-26T18:41:00.864Z,100723.97
2022-10-26T18:43:28.892Z,100719.53
2022-10-26T18:46:04.607Z,100721.09
2022-10-26T18:48:32.435Z,100729.53
2022-10-26T18:51:10.351Z,100733.13
2022-10-26T18:53:38.096Z,100728.75
2022-10-26T18:56:06.212Z,100740.06
2022-10-26T18:58:41.288Z,100737.88
2022-10-26T19:01:10.114Z,100744.25
2022-10-26T19:03:37.815Z,100740.06
2022-10-26T19:06:17.338Z,100745.47
2022-10-26T19:08:44.972Z,100745.81
2022-10-26T19:11:13.026Z,100743.81
2022-10-26T19:13:42.084Z,100747.47
2022-10-26T19:16:21.761Z,100750.25
2022-10-26T19:18:56.259Z,100748.00
2022-10-26T19:21:24.718Z,100759.31
2022-10-26T19:23:53.046Z,100761.13
2022-10-26T19:26:22.368Z,100759.53
2022-10-26T19:28:59.721Z,100753.97
2022-10-26T19:31:27.631Z,100753.88
2022-10-26T19:33:56.590Z,100756.34
2022-10-26T19:36:24.233Z,100764.69
2022-10-26T19:38:51.742Z,100764.09
2022-10-26T19:41:19.161Z,100758.66
2022-10-26T19:43:46.627Z,100758.59
2022-10-26T19:46:15.341Z,100765.09
2022-10-26T19:48:47.864Z,100771.72
2022-10-26T19:51:15.290Z,100780.41
2022-10-26T19:53:42.700Z,100773.72
2022-10-26T19:56:12.439Z,100779.28
2022-10-26T19:58:40.550Z,100784.59
2022-10-26T20:01:08.037Z,100776.44
2022-10-26T20:03:35.654Z,100781.75
2022-10-26T20:06:13.300Z,100786.94
2022-10-26T20:08:41.136Z,100785.56
2022-10-26T20:11:11.549Z,100789.19
2022-10-26T20:13:42.543Z,100790.53
2022-10-26T20:16:10.364Z,100791.38
2022-10-26T20:18:42.547Z,100799.22
2022-10-26T20:21:14.255Z,100804.50
2022-10-26T20:23:42.764Z,100789.44
2022-10-26T20:26:18.066Z,100795.28
2022-10-26T20:28:48.707Z,100800.63
2022-10-26T20:31:17.149Z,100799.72
2022-10-26T20:33:44.760Z,100794.09
2022-10-26T20:36:12.280Z,100798.53
2022-10-26T20:38:39.996Z,100806.31
2022-10-26T20:41:10.278Z,100813.56
2022-10-26T20:43:38.671Z,100816.69
2022-10-26T20:46:06.987Z,100810.59
2022-10-26T20:48:34.760Z,100809.66
2022-10-26T20:51:06.679Z,100822.41
2022-10-26T20:53:42.824Z,100809.53
2022-10-26T20:56:28.704Z,100824.44
2022-10-26T20:58:56.778Z,100821.72
2022-10-26T21:01:28.560Z,100831.06
2022-10-26T21:03:56.329Z,100826.81
2022-10-26T21:06:23.926Z,100824.63
2022-10-26T21:08:51.612Z,100822.44
2022-10-26T21:11:19.002Z,100820.84
2022-10-26T21:13:52.178Z,100823.22
2022-10-26T21:18:52.727Z,100829.53
2022-10-26T21:21:21.560Z,100829.53
2022-10-26T21:23:49.419Z,100830.13
2022-10-26T21:26:16.968Z,100830.28
2022-10-26T21:28:47.375Z,100832.56
2022-10-26T21:31:15.498Z,100836.50
2022-10-26T21:33:42.848Z,100831.31
2022-10-26T21:36:14.050Z,100834.91
2022-10-26T21:38:41.954Z,100838.97
2022-10-26T21:41:10.097Z,100836.78
2022-10-26T21:43:38.185Z,100845.63
2022-10-26T21:46:06.107Z,100836.78
2022-10-26T21:48:34.615Z,100846.19
2022-10-26T21:51:02.543Z,100846.19
2022-10-26T21:53:30.256Z,100849.16
2022-10-26T21:56:04.979Z,100848.84
2022-10-26T21:58:33.066Z,100854.81
2022-10-26T22:01:04.419Z,100857.22
2022-10-26T22:03:32.128Z,100867.09
2022-10-26T22:05:59.491Z,100861.09
2022-10-26T22:08:27.704Z,100875.09
2022-10-26T22:10:55.811Z,100870.84
2022-10-26T22:13:23.383Z,100876.09
2022-10-26T22:16:01.766Z,100871.53
2022-10-26T22:18:29.432Z,100880.53
2022-10-26T22:20:57.261Z,100874.31
2022-10-26T22:23:28.004Z,100885.13
2022-10-26T22:25:55.573Z,100884.75
2022-10-26T22:28:23.238Z,100884.19
2022-10-26T22:30:51.158Z,100891.19
2022-10-26T22:33:18.669Z,100888.28
2022-10-26T22:35:46.007Z,100886.78
2022-10-26T22:38:13.848Z,100891.16
2022-10-26T22:40:41.267Z,100887.03
2022-10-26T22:43:09.320Z,100892.69
2022-10-26T22:45:38.347Z,100887.22
2022-10-26T22:48:05.851Z,100890.56
2022-10-26T22:50:33.459Z,100893.44
2022-10-26T22:53:00.803Z,100895.63
2022-10-26T22:55:28.063Z,100893.78
2022-10-26T22:57:55.435Z,100902.44
2022-10-26T23:00:22.796Z,100895.38
2022-10-26T23:02:50.296Z,100893.53
2022-10-26T23:05:17.568Z,100893.94
2022-10-26T23:07:44.848Z,100898.41
2022-10-26T23:10:12.272Z,100889.16
2022-10-26T23:12:39.572Z,100895.13
2022-10-26T23:15:07.370Z,100896.53
2022-10-26T23:17:34.768Z,100906.91
2022-10-26T23:20:02.153Z,100894.03
2022-10-26T23:22:29.660Z,100891.41
2022-10-26T23:24:56.965Z,100894.44
2022-10-26T23:27:24.273Z,100890.31
2022-10-26T23:29:51.567Z,100896.91
2022-10-26T23:32:18.927Z,100897.22
2022-10-26T23:34:46.229Z,100898.31
2022-10-26T23:37:13.644Z,100891.66
2022-10-26T23:39:41.069Z,100891.25
2022-10-26T23:42:08.461Z,100893.94
2022-10-26T23:44:36.299Z,100900.34
2022-10-26T23:47:04.172Z,100893.69
2022-10-26T23:49:32.403Z,100895.88
2022-10-26T23:51:59.825Z,100901.09
2022-10-26T23:54:29.372Z,100898.72
2022-10-26T23:56:56.778Z,100896.38
2022-10-26T23:59:24.364Z,100904.19
